Time;durP1;ratioP1;P1;durP2;ratioP2;P2;SDS_P1;SDS_P2;PMS_P1;PMS_P2;Temp;Humidity;BMP_temperature;BMP_pressure;BME280_temperature;BME280_humidity;BME280_pressure;Samples;Min_cycle;Max_cycle;Signal;HPM_P1;HPM_P2
2021/12/29 00:02:04;;;;;;;59.30;34.28;;;;;;;0.52;100.00;99777.41;4977561;28;20221;-85
2021/12/29 00:04:31;;;;;;;57.97;34.90;;;;;;;0.45;100.00;99781.03;5005288;28;20178;-85
2021/12/29 00:06:57;;;;;;;59.22;34.70;;;;;;;0.49;100.00;99781.88;4976255;28;20546;-86
2021/12/29 00:09:23;;;;;;;54.55;32.78;;;;;;;0.50;100.00;99780.97;4976836;28;20185;-86
2021/12/29 00:11:49;;;;;;;60.63;35.88;;;;;;;0.52;100.00;99768.63;4978141;28;20233;-85
2021/12/29 00:14:15;;;;;;;58.58;34.65;;;;;;;0.49;100.00;99785.38;4991863;28;20166;-86
2021/12/29 00:16:40;;;;;;;56.53;34.08;;;;;;;0.51;100.00;99796.75;4993953;28;20184;-83
2021/12/29 00:19:07;;;;;;;63.40;34.47;;;;;;;0.49;100.00;99800.31;4986901;28;20166;-82
2021/12/29 00:21:33;;;;;;;57.47;35.13;;;;;;;0.48;100.00;99804.72;4986559;28;20216;-82
2021/12/29 00:24:00;;;;;;;61.58;36.33;;;;;;;0.46;100.00;99819.69;4985422;28;20177;-82
2021/12/29 00:26:30;;;;;;;57.55;35.00;;;;;;;0.52;100.00;99802.91;4986055;28;20186;-82
2021/12/29 00:28:58;;;;;;;56.13;33.25;;;;;;;0.53;100.00;99810.78;4991130;28;20186;-83
2021/12/29 00:31:29;;;;;;;56.53;34.67;;;;;;;0.44;100.00;99804.75;4982093;28;20220;-83
2021/12/29 00:34:13;;;;;;;60.55;35.22;;;;;;;0.46;100.00;99808.25;4975593;28;20197;-83
2021/12/29 00:36:57;;;;;;;55.58;33.80;;;;;;;0.49;100.00;99813.50;4980902;28;20189;-82
2021/12/29 00:39:31;;;;;;;58.08;33.92;;;;;;;0.48;100.00;99811.72;4975902;28;20650;-83
2021/12/29 00:42:15;;;;;;;58.30;33.40;;;;;;;0.49;100.00;99822.25;4975583;28;20580;-83
2021/12/29 00:44:59;;;;;;;62.33;35.85;;;;;;;0.49;100.00;99839.84;4974603;28;20270;-85
2021/12/29 00:47:29;;;;;;;64.70;33.88;;;;;;;0.46;100.00;99830.22;4974007;28;20603;-85
2021/12/29 00:49:55;;;;;;;61.40;34.42;;;;;;;0.41;100.00;99845.19;4974741;28;20331;-85
2021/12/29 00:52:20;;;;;;;59.80;35.10;;;;;;;0.37;100.00;99849.66;4991574;28;20170;-85
2021/12/29 00:54:46;;;;;;;59.95;35.05;;;;;;;0.35;100.00;99856.72;4958655;28;20182;-85
2021/12/29 00:57:11;;;;;;;61.45;34.72;;;;;;;0.43;100.00;99868.91;4974398;28;20170;-84
2021/12/29 00:59:37;;;;;;;55.33;33.78;;;;;;;0.47;100.00;99866.22;4981416;28;20197;-84
2021/12/29 01:02:04;;;;;;;52.90;34.45;;;;;;;0.44;100.00;99862.72;4985299;28;20260;-84
2021/12/29 01:04:30;;;;;;;66.03;37.05;;;;;;;0.44;100.00;99858.34;4992854;28;20190;-83
2021/12/29 01:06:55;;;;;;;65.63;36.75;;;;;;;0.39;100.00;99866.31;4989257;28;20197;-86
2021/12/29 01:09:21;;;;;;;64.20;36.85;;;;;;;0.36;100.00;99858.44;4982126;28;20173;-84
2021/12/29 01:11:46;;;;;;;64.18;35.72;;;;;;;0.44;100.00;99887.34;4985331;28;20214;-84
2021/12/29 01:14:12;;;;;;;66.22;35.58;;;;;;;0.44;100.00;99866.25;4983590;28;20186;-83
2021/12/29 01:16:38;;;;;;;62.97;35.88;;;;;;;0.35;100.00;99869.88;4989114;28;20324;-82
2021/12/29 01:19:09;;;;;;;61.95;35.05;;;;;;;0.31;100.00;99873.44;4993398;28;20174;-82
2021/12/29 01:21:35;;;;;;;59.63;34.05;;;;;;;0.27;100.00;99886.66;4975993;28;20214;-81
2021/12/29 01:24:03;;;;;;;53.50;31.63;;;;;;;0.33;100.00;99884.84;4977244;28;20178;-80
2021/12/29 01:26:28;;;;;;;62.72;34.17;;;;;;;0.36;100.00;99892.69;4992055;28;20229;-83
2021/12/29 01:28:54;;;;;;;62.22;35.65;;;;;;;0.36;100.00;99905.00;4973171;28;20162;-81
2021/12/29 01:31:19;;;;;;;66.97;36.50;;;;;;;0.36;100.00;99910.25;4976477;28;20185;-81
2021/12/29 01:33:45;;;;;;;61.20;34.88;;;;;;;0.41;100.00;99918.97;4975836;28;20213;-80
2021/12/29 01:36:10;;;;;;;63.45;36.25;;;;;;;0.35;100.00;99904.13;4976515;28;20504;-83
2021/12/29 01:38:36;;;;;;;66.25;36.88;;;;;;;0.35;100.00;99908.50;4972795;28;20185;-83
2021/12/29 01:41:02;;;;;;;64.25;34.97;;;;;;;0.29;100.00;99909.47;4972391;28;20229;-83
2021/12/29 01:43:28;;;;;;;70.03;36.33;;;;;;;0.28;100.00;99912.09;4973124;28;20174;-83
2021/12/29 01:45:53;;;;;;;72.47;37.75;;;;;;;0.22;100.00;99920.06;4988884;28;20200;-85
2021/12/29 01:48:19;;;;;;;68.00;36.90;;;;;;;0.26;100.00;99924.41;4987952;28;20229;-83
2021/12/29 01:50:49;;;;;;;72.63;38.22;;;;;;;0.25;100.00;99920.06;4989247;28;20300;-85
2021/12/29 01:53:23;;;;;;;75.13;38.22;;;;;;;0.33;100.00;99924.34;4981438;28;20828;-84
2021/12/29 01:55:50;;;;;;;73.78;39.97;;;;;;;0.37;100.00;99926.06;4965406;28;20176;-82
2021/12/29 01:58:16;;;;;;;76.18;38.58;;;;;;;0.33;100.00;99929.63;4974735;28;20182;-82
2021/12/29 02:00:42;;;;;;;69.15;38.50;;;;;;;0.38;100.00;99927.78;4975153;28;20200;-80
2021/12/29 02:03:08;;;;;;;73.72;38.95;;;;;;;0.36;100.00;99921.66;4977930;28;20171;-80
2021/12/29 02:05:38;;;;;;;74.53;41.33;;;;;;;0.31;100.00;99922.63;4977098;28;20173;-80
2021/12/29 02:08:05;;;;;;;77.65;40.05;;;;;;;0.34;100.00;99922.59;4977357;28;20174;-80
2021/12/29 02:10:36;;;;;;;73.88;39.03;;;;;;;0.36;100.00;99924.31;4976422;28;20576;-82
2021/12/29 02:13:02;;;;;;;79.72;39.60;;;;;;;0.38;100.00;99930.44;4976929;28;20177;-80
2021/12/29 02:15:27;;;;;;;85.88;42.75;;;;;;;0.36;100.00;99937.47;4992780;28;20193;-82
2021/12/29 02:17:53;;;;;;;82.97;42.40;;;;;;;0.39;100.00;99950.63;4973738;28;20169;-83
2021/12/29 02:20:20;;;;;;;82.60;42.35;;;;;;;0.35;100.00;99941.03;4973654;28;20300;-83
2021/12/29 02:22:49;;;;;;;76.65;39.72;;;;;;;0.30;100.00;99955.97;4959684;28;20575;-82
2021/12/29 02:27:43;;;;;;;75.32;38.75;;;;;;;0.38;100.00;99991.03;4977259;28;20178;-82
2021/12/29 02:30:09;;;;;;;75.10;39.90;;;;;;;0.37;100.00;99962.06;4976887;28;20206;-82
2021/12/29 02:32:35;;;;;;;81.32;41.55;;;;;;;0.29;100.00;99951.63;4977071;28;20221;-82
2021/12/29 02:35:00;;;;;;;83.40;40.80;;;;;;;0.31;100.00;99949.84;4992499;28;20166;-83
2021/12/29 02:37:26;;;;;;;82.13;41.28;;;;;;;0.31;100.00;99949.84;4993747;28;20367;-83
2021/12/29 02:39:52;;;;;;;80.75;41.47;;;;;;;0.30;100.00;99937.53;4978668;28;20170;-83
2021/12/29 02:42:20;;;;;;;84.10;40.45;;;;;;;0.32;100.00;99954.22;4996335;28;20325;-83
2021/12/29 02:44:46;;;;;;;80.75;41.70;;;;;;;0.32;100.00;99954.22;4985059;28;20639;-82
2021/12/29 02:47:12;;;;;;;86.53;40.58;;;;;;;0.27;100.00;99971.84;4972510;28;20619;-83
2021/12/29 02:49:38;;;;;;;82.43;40.88;;;;;;;0.30;100.00;99984.97;4983936;28;20225;-83
2021/12/29 02:52:04;;;;;;;78.00;40.60;;;;;;;0.33;100.00;99987.59;4998839;28;20685;-84
2021/12/29 02:54:29;;;;;;;90.00;42.03;;;;;;;0.33;100.00;99990.22;4995721;28;20256;-84
2021/12/29 02:56:55;;;;;;;89.63;41.38;;;;;;;0.29;100.00;99991.13;5011272;28;20173;-81
2021/12/29 02:59:22;;;;;;;90.43;42.75;;;;;;;0.28;100.00;99993.78;4998462;28;20306;-81
2021/12/29 03:01:48;;;;;;;84.25;40.50;;;;;;;0.31;100.00;99992.00;4998802;28;20201;-81
2021/12/29 03:04:15;;;;;;;93.68;43.55;;;;;;;0.29;100.00;99995.53;4980726;28;20651;-81
2021/12/29 03:06:40;;;;;;;82.57;41.65;;;;;;;0.30;100.00;99995.50;4977824;28;20623;-81
2021/12/29 03:09:08;;;;;;;90.03;42.55;;;;;;;0.33;100.00;100003.41;4978874;28;20189;-83
2021/12/29 03:11:34;;;;;;;81.80;41.25;;;;;;;0.34;100.00;100020.94;4977625;28;20208;-81
2021/12/29 03:14:00;;;;;;;78.68;40.92;;;;;;;0.39;100.00;100024.41;4976289;28;20639;-84
2021/12/29 03:16:27;;;;;;;92.80;43.40;;;;;;;0.44;100.00;100018.19;4975871;28;20178;-84
2021/12/29 03:18:53;;;;;;;86.90;40.72;;;;;;;0.46;100.00;100019.06;4977007;28;20183;-83
2021/12/29 03:21:18;;;;;;;77.72;39.30;;;;;;;0.43;100.00;100032.28;4993806;28;20201;-83
2021/12/29 03:23:44;;;;;;;78.38;40.95;;;;;;;0.39;100.00;100032.31;4978886;28;20598;-83
2021/12/29 03:26:09;;;;;;;78.65;38.95;;;;;;;0.39;100.00;100037.59;4978517;28;20170;-83
2021/12/29 03:28:37;;;;;;;71.53;36.95;;;;;;;0.42;100.00;100034.06;4993563;28;20265;-83
2021/12/29 03:31:04;;;;;;;64.43;35.95;;;;;;;0.45;100.00;100044.53;4978026;28;20194;-82
2021/12/29 03:33:29;;;;;;;79.30;39.10;;;;;;;0.43;100.00;100033.16;4977041;28;20215;-83
2021/12/29 03:36:01;;;;;;;73.30;38.10;;;;;;;0.46;100.00;100030.50;4983670;28;20574;-82
2021/12/29 03:38:30;;;;;;;73.55;36.67;;;;;;;0.46;100.00;100040.13;4980280;28;20582;-82
2021/12/29 03:40:58;;;;;;;65.53;35.08;;;;;;;0.50;100.00;100057.69;4979126;28;20698;-83
2021/12/29 03:43:25;;;;;;;63.97;35.47;;;;;;;0.55;100.00;100061.16;4978359;28;20613;-82
2021/12/29 03:45:52;;;;;;;73.25;37.80;;;;;;;0.41;100.00;100063.91;4976567;28;20174;-83
2021/12/29 03:48:20;;;;;;;79.10;38.20;;;;;;;0.37;100.00;100049.91;4995002;28;20186;-81
2021/12/29 03:50:46;;;;;;;76.65;38.55;;;;;;;0.39;100.00;100060.41;4984431;28;20229;-82
2021/12/29 03:53:14;;;;;;;85.63;42.10;;;;;;;0.37;100.00;100047.28;4977121;28;20162;-83
2021/12/29 03:55:46;;;;;;;85.43;39.72;;;;;;;0.26;100.00;100045.59;4974267;28;20178;-83
2021/12/29 03:58:12;;;;;;;81.82;39.20;;;;;;;0.22;100.00;100052.69;4975072;28;20226;-83
2021/12/29 04:00:37;;;;;;;76.93;37.83;;;;;;;0.24;100.00;100058.81;4975386;28;20214;-82
2021/12/29 04:03:04;;;;;;;72.40;37.50;;;;;;;0.33;100.00;100066.63;4976133;28;20202;-83
2021/12/29 04:05:30;;;;;;;73.35;35.60;;;;;;;0.36;100.00;100074.50;4975933;28;20662;-83
2021/12/29 04:07:56;;;;;;;85.90;39.97;;;;;;;0.37;100.00;100080.63;4974862;28;20186;-83
2021/12/29 04:10:23;;;;;;;88.13;41.20;;;;;;;0.38;100.00;100079.75;4975610;28;20216;-83
2021/12/29 04:12:49;;;;;;;74.90;38.60;;;;;;;0.38;100.00;100085.88;4975529;28;20159;-83
2021/12/29 04:15:16;;;;;;;76.82;37.28;;;;;;;0.43;100.00;100093.75;4974329;28;20182;-82
2021/12/29 04:17:43;;;;;;;71.40;34.20;;;;;;;0.45;100.00;100096.38;4978925;28;20174;-81
2021/12/29 04:22:58;;;;;;;91.53;41.97;;;;;;;0.32;100.00;100077.16;4982852;28;20257;-82
2021/12/29 04:25:25;;;;;;;81.80;38.92;;;;;;;0.16;100.00;100066.75;4992413;28;20256;-84
2021/12/29 04:27:54;;;;;;;95.97;41.08;;;;;;;0.22;100.00;100072.84;4976803;28;20174;-83
2021/12/29 04:30:21;;;;;;;84.93;39.30;;;;;;;0.24;100.00;100082.53;4988337;28;20206;-83
2021/12/29 04:32:47;;;;;;;77.90;38.00;;;;;;;0.30;100.00;100106.16;4974044;28;20166;-83
2021/12/29 04:35:14;;;;;;;89.07;37.63;;;;;;;0.30;100.00;100114.06;4974520;28;20236;-83
2021/12/29 04:37:39;;;;;;;89.75;39.13;;;;;;;0.36;100.00;100128.97;4981266;28;20205;-81
2021/12/29 04:40:06;;;;;;;106.65;42.30;;;;;;;0.40;100.00;100131.56;4999611;28;20208;-82
2021/12/29 04:42:32;;;;;;;113.65;43.17;;;;;;;0.43;100.00;100128.00;4982992;28;20194;-82
2021/12/29 04:44:58;;;;;;;92.82;39.97;;;;;;;0.43;100.00;100145.59;4980406;28;20177;-83
2021/12/29 04:47:28;;;;;;;102.88;41.08;;;;;;;0.34;100.00;100146.53;4960007;28;20353;-83
2021/12/29 04:49:56;;;;;;;84.68;36.47;;;;;;;0.34;100.00;100147.41;4998377;28;20549;-83
2021/12/29 04:52:22;;;;;;;86.35;37.80;;;;;;;0.34;100.00;100144.78;4996662;28;20178;-83
2021/12/29 04:54:47;;;;;;;103.90;41.25;;;;;;;0.36;100.00;100142.13;4996438;28;20191;-83
2021/12/29 04:57:15;;;;;;;100.97;41.88;;;;;;;0.30;100.00;100153.56;4991684;28;20178;-83
2021/12/29 04:59:41;;;;;;;81.95;36.65;;;;;;;0.38;100.00;100161.44;4975901;28;20178;-83
2021/12/29 05:02:06;;;;;;;93.32;38.75;;;;;;;0.38;100.00;100164.94;4990744;28;20223;-83
2021/12/29 05:04:34;;;;;;;81.68;36.70;;;;;;;0.41;100.00;100162.28;4994294;28;20174;-83
2021/12/29 05:09:45;;;;;;;81.57;36.75;;;;;;;0.41;100.00;100186.00;4994420;28;20216;-82
2021/12/29 05:12:11;;;;;;;92.53;39.53;;;;;;;0.27;100.00;100193.13;4994173;28;20190;-81
2021/12/29 05:14:37;;;;;;;101.20;41.20;;;;;;;0.21;100.00;100198.44;5009369;28;20642;-81
2021/12/29 05:17:03;;;;;;;92.97;38.70;;;;;;;0.26;100.00;100204.53;4993518;28;20236;-82
2021/12/29 05:19:29;;;;;;;87.70;37.75;;;;;;;0.33;100.00;100203.63;4994445;28;20260;-81
2021/12/29 05:21:55;;;;;;;106.30;40.60;;;;;;;0.34;100.00;100213.28;4993703;28;20193;-81
2021/12/29 05:24:20;;;;;;;112.45;43.15;;;;;;;0.32;100.00;100225.59;4992745;28;20715;-81
2021/12/29 05:26:45;;;;;;;93.72;39.80;;;;;;;0.38;100.00;100225.53;5008967;28;20173;-81
2021/12/29 05:29:11;;;;;;;93.07;37.90;;;;;;;0.39;100.00;100218.50;5009630;28;20256;-81
2021/12/29 05:31:37;;;;;;;93.55;40.65;;;;;;;0.43;100.00;100217.59;5008849;28;20236;-82
2021/12/29 05:34:02;;;;;;;113.57;44.72;;;;;;;0.38;100.00;100222.91;4992717;28;20169;-81
2021/12/29 05:36:28;;;;;;;115.50;45.55;;;;;;;0.43;100.00;100227.28;5009015;28;20589;-82
2021/12/29 05:38:55;;;;;;;104.03;42.75;;;;;;;0.44;100.00;100224.66;4997805;28;20173;-79
2021/12/29 05:41:21;;;;;;;117.72;45.65;;;;;;;0.41;100.00;100230.78;4999414;28;20205;-80
2021/12/29 05:43:47;;;;;;;102.45;43.45;;;;;;;0.51;100.00;100228.13;4998886;28;20181;-82
2021/12/29 05:46:13;;;;;;;121.40;46.58;;;;;;;0.54;100.00;100233.34;4994016;28;20170;-83
2021/12/29 05:48:38;;;;;;;95.00;41.40;;;;;;;0.59;100.00;100234.19;4994519;28;20170;-82
2021/12/29 05:51:04;;;;;;;114.57;44.08;;;;;;;0.58;100.00;100240.34;4994061;28;20189;-82
2021/12/29 05:53:29;;;;;;;89.85;38.10;;;;;;;0.59;100.00;100244.72;5009414;28;20675;-82
2021/12/29 05:55:55;;;;;;;96.38;41.75;;;;;;;0.59;100.00;100245.63;5012701;28;20193;-82
2021/12/29 05:58:21;;;;;;;101.07;41.78;;;;;;;0.50;100.00;100242.16;4997962;28;20295;-81
2021/12/29 06:00:47;;;;;;;98.90;41.30;;;;;;;0.52;100.00;100246.53;5013304;28;20220;-80
2021/12/29 06:03:12;;;;;;;106.18;42.50;;;;;;;0.49;100.00;100251.84;4993764;28;20194;-80
2021/12/29 06:05:38;;;;;;;103.90;40.95;;;;;;;0.53;100.00;100252.69;4983504;28;20238;-80
2021/12/29 06:08:04;;;;;;;82.43;36.35;;;;;;;0.57;100.00;100249.16;4997969;28;20174;-82
2021/12/29 06:10:30;;;;;;;97.53;40.47;;;;;;;0.57;100.00;100247.41;4977260;28;20630;-82
2021/12/29 06:12:56;;;;;;;83.25;36.63;;;;;;;0.55;100.00;100256.19;5000133;28;20276;-82
2021/12/29 06:15:22;;;;;;;80.88;37.15;;;;;;;0.56;100.00;100252.66;4977932;28;20174;-82
2021/12/29 06:17:47;;;;;;;89.88;38.33;;;;;;;0.48;100.00;100265.00;4977015;28;20586;-82
2021/12/29 06:20:13;;;;;;;80.93;36.00;;;;;;;0.49;100.00;100257.09;4977752;28;20194;-82
2021/12/29 06:22:39;;;;;;;93.32;39.83;;;;;;;0.40;100.00;100257.16;4977457;28;20201;-82
2021/12/29 06:25:07;;;;;;;100.90;41.70;;;;;;;0.35;100.00;100264.19;4992317;28;20178;-82
2021/12/29 06:27:33;;;;;;;98.00;38.83;;;;;;;0.40;100.00;100258.03;4976210;28;20213;-80
2021/12/29 06:29:59;;;;;;;93.72;37.30;;;;;;;0.44;100.00;100253.63;4997064;28;20186;-80
2021/12/29 06:32:25;;;;;;;98.95;39.67;;;;;;;0.49;100.00;100264.16;4984680;28;20220;-80
2021/12/29 06:34:51;;;;;;;97.45;39.72;;;;;;;0.55;100.00;100264.13;4978251;28;20545;-82
2021/12/29 06:37:17;;;;;;;109.68;39.92;;;;;;;0.56;100.00;100273.75;4975630;28;20174;-82
2021/12/29 06:39:45;;;;;;;117.90;42.22;;;;;;;0.56;100.00;100279.03;4975014;28;20181;-82
2021/12/29 06:42:11;;;;;;;143.77;44.10;;;;;;;0.45;100.00;100278.22;4979677;28;20229;-80
2021/12/29 06:44:37;;;;;;;155.55;45.05;;;;;;;0.41;100.00;100282.63;4983971;28;20577;-82
2021/12/29 06:47:03;;;;;;;127.15;43.35;;;;;;;0.41;100.00;100286.13;4977026;28;20608;-82
2021/12/29 06:49:29;;;;;;;118.60;42.28;;;;;;;0.44;100.00;100285.25;4977509;28;20181;-82
2021/12/29 06:51:55;;;;;;;152.93;46.13;;;;;;;0.38;100.00;100286.16;4976978;28;20582;-82
2021/12/29 06:54:21;;;;;;;115.68;43.40;;;;;;;0.40;100.00;100289.66;4975780;28;20197;-81
2021/12/29 06:56:46;;;;;;;115.60;44.42;;;;;;;0.45;100.00;100301.94;4976687;28;20189;-81
2021/12/29 06:59:15;;;;;;;260.73;49.63;;;;;;;0.39;100.00;100303.72;4975815;28;20189;-81
2021/12/29 07:01:40;;;;;;;185.20;48.45;;;;;;;0.31;100.00;100308.16;4997902;28;20213;-79
2021/12/29 07:04:06;;;;;;;114.65;42.15;;;;;;;0.37;100.00;100310.78;4984563;28;20260;-79
2021/12/29 07:06:31;;;;;;;119.07;42.72;;;;;;;0.46;100.00;100320.38;4980994;28;20741;-79
2021/12/29 07:08:57;;;;;;;127.93;45.83;;;;;;;0.47;100.00;100323.91;4997768;28;20639;-79
2021/12/29 07:11:22;;;;;;;145.05;46.60;;;;;;;0.37;100.00;100321.31;4980974;28;20185;-80
2021/12/29 07:13:49;;;;;;;361.48;52.05;;;;;;;0.35;100.00;100315.16;4987191;28;20613;-81
2021/12/29 07:16:15;;;;;;;140.52;45.15;;;;;;;0.37;100.00;100309.88;4995360;28;20197;-81
2021/12/29 07:18:40;;;;;;;145.85;46.92;;;;;;;0.39;100.00;100303.72;4994998;28;20257;-82
2021/12/29 07:21:05;;;;;;;167.07;49.88;;;;;;;0.33;100.00;100308.16;5009957;28;20193;-82
2021/12/29 07:23:31;;;;;;;118.95;44.22;;;;;;;0.43;100.00;100324.78;5010764;28;20215;-82
2021/12/29 07:25:56;;;;;;;134.57;44.10;;;;;;;0.48;100.00;100325.63;5010583;28;20177;-82
2021/12/29 07:28:22;;;;;;;131.95;46.03;;;;;;;0.50;100.00;100335.28;4998676;28;20601;-80
2021/12/29 07:30:47;;;;;;;122.72;43.25;;;;;;;0.54;100.00;100355.47;5015520;28;20232;-79
2021/12/29 07:33:13;;;;;;;163.82;47.05;;;;;;;0.52;100.00;100362.50;4998750;28;20247;-80
2021/12/29 07:35:38;;;;;;;124.50;43.30;;;;;;;0.56;100.00;100366.00;4999234;28;20189;-80
2021/12/29 07:38:04;;;;;;;172.05;50.03;;;;;;;0.56;100.00;100366.88;5001426;28;20173;-80
2021/12/29 07:40:31;;;;;;;151.98;48.60;;;;;;;0.52;100.00;100364.28;4999190;28;20272;-81
2021/12/29 07:42:57;;;;;;;175.45;51.17;;;;;;;0.49;100.00;100378.34;4999560;28;20205;-80
2021/12/29 07:45:25;;;;;;;145.18;45.60;;;;;;;0.55;100.00;100388.88;5013629;28;20173;-81
2021/12/29 07:47:51;;;;;;;137.23;45.30;;;;;;;0.55;100.00;100390.63;5013381;28;20186;-80
2021/12/29 07:50:18;;;;;;;125.10;41.90;;;;;;;0.59;100.00;100394.97;4997419;28;20296;-80
2021/12/29 07:52:47;;;;;;;188.35;48.55;;;;;;;0.52;100.00;100399.41;4999431;28;20174;-80
2021/12/29 07:55:15;;;;;;;140.45;43.83;;;;;;;0.57;100.00;100399.41;4998867;28;20208;-80
2021/12/29 07:57:40;;;;;;;162.10;48.38;;;;;;;0.52;100.00;100402.03;4997396;28;20237;-81
2021/12/29 08:00:07;;;;;;;138.57;44.55;;;;;;;0.53;100.00;100410.84;5017325;28;20173;-81
2021/12/29 08:02:39;;;;;;;158.90;47.30;;;;;;;0.53;100.00;100426.66;4990804;28;20206;-82
2021/12/29 08:05:07;;;;;;;207.02;52.63;;;;;;;0.50;100.00;100409.06;4975865;28;20185;-82
2021/12/29 08:07:34;;;;;;;155.75;47.63;;;;;;;0.55;100.00;100423.13;4973193;28;20174;-82
2021/12/29 08:09:59;;;;;;;138.52;45.78;;;;;;;0.63;100.00;100428.34;4990495;28;20644;-82
2021/12/29 08:12:25;;;;;;;128.35;42.25;;;;;;;0.68;100.00;100430.97;4975226;28;20209;-83
2021/12/29 08:14:51;;;;;;;166.88;48.13;;;;;;;0.69;100.00;100449.44;4974898;28;20174;-82
2021/12/29 08:17:17;;;;;;;144.93;43.40;;;;;;;0.70;100.00;100452.94;4974959;28;20952;-82
2021/12/29 08:19:43;;;;;;;179.02;49.00;;;;;;;0.69;100.00;100444.16;4977973;28;20178;-82
2021/12/29 08:22:09;;;;;;;152.43;44.97;;;;;;;0.74;100.00;100445.00;4982310;28;20202;-81
2021/12/29 08:24:34;;;;;;;158.73;42.55;;;;;;;0.79;100.00;100447.66;4997304;28;20693;-82
2021/12/29 08:27:00;;;;;;;158.38;41.80;;;;;;;0.81;100.00;100444.13;4995607;28;20280;-81
2021/12/29 08:29:25;;;;;;;199.98;45.03;;;;;;;0.85;100.00;100442.31;4997142;28;20233;-81
2021/12/29 08:31:51;;;;;;;111.57;36.90;;;;;;;0.89;100.00;100441.41;4996185;28;20206;-81
2021/12/29 08:34:17;;;;;;;210.45;44.42;;;;;;;0.89;100.00;100451.09;4996566;28;20240;-82
2021/12/29 08:36:42;;;;;;;176.55;45.67;;;;;;;0.90;100.00;100455.50;4978507;28;20166;-82
2021/12/29 08:39:08;;;;;;;179.10;54.97;;;;;;;0.88;100.00;100454.63;4976776;28;20567;-82
2021/12/29 08:41:34;;;;;;;193.32;48.90;;;;;;;0.88;100.00;100465.19;4976110;28;20210;-82
2021/12/29 08:43:59;;;;;;;135.57;42.25;;;;;;;0.90;100.00;100466.94;4994164;28;20212;-81
2021/12/29 08:46:26;;;;;;;140.60;42.70;;;;;;;0.93;100.00;100458.13;4977662;28;20643;-80
2021/12/29 08:48:52;;;;;;;147.15;42.75;;;;;;;0.94;100.00;100458.13;4978037;28;20270;-79
2021/12/29 08:51:19;;;;;;;160.07;43.53;;;;;;;0.97;100.00;100465.13;4978035;28;20202;-81
2021/12/29 08:53:45;;;;;;;175.15;44.60;;;;;;;0.98;100.00;100462.50;4995258;28;20189;-81
2021/12/29 08:56:12;;;;;;;224.00;44.17;;;;;;;0.98;100.00;100472.16;4989591;28;20228;-82
2021/12/29 08:58:37;;;;;;;196.70;41.97;;;;;;;0.98;100.00;100466.88;4989797;28;20281;-81
2021/12/29 09:01:03;;;;;;;271.80;45.38;;;;;;;0.94;100.00;100473.03;4979271;28;20244;-80
2021/12/29 09:03:29;;;;;;;175.15;44.75;;;;;;;0.97;100.00;100473.06;4980842;28;20170;-81
2021/12/29 09:05:55;;;;;;;166.15;47.03;;;;;;;1.03;100.00;100475.66;4981429;28;20182;-81
2021/12/29 09:08:20;;;;;;;188.90;47.92;;;;;;;1.03;100.00;100467.75;4996065;28;20200;-80
2021/12/29 09:10:46;;;;;;;302.65;50.88;;;;;;;0.95;100.00;100464.28;4976304;28;20454;-81
2021/12/29 09:13:12;;;;;;;239.82;45.90;;;;;;;0.92;100.00;100469.53;4975606;28;20229;-82
2021/12/29 09:15:38;;;;;;;157.55;42.75;;;;;;;0.92;100.00;100467.81;4992720;28;20205;-81
2021/12/29 09:18:04;;;;;;;194.35;46.45;;;;;;;0.94;100.00;100460.75;4992034;28;20252;-82
2021/12/29 09:20:33;;;;;;;155.98;43.50;;;;;;;1.05;100.00;100462.44;5007781;28;20220;-82
2021/12/29 09:23:02;;;;;;;166.45;43.15;;;;;;;1.12;100.00;100527.50;4992431;28;20209;-83
2021/12/29 09:25:28;;;;;;;166.40;44.78;;;;;;;1.15;100.00;100464.16;5008099;28;20232;-83
2021/12/29 09:27:54;;;;;;;163.70;44.78;;;;;;;1.20;100.00;100467.63;5009862;28;20189;-80
2021/12/29 09:30:21;;;;;;;181.00;42.90;;;;;;;1.24;100.00;100477.28;4997751;28;20271;-80
2021/12/29 09:32:47;;;;;;;174.07;43.42;;;;;;;1.26;100.00;100493.13;5012125;28;20610;-81
2021/12/29 09:35:13;;;;;;;170.80;42.85;;;;;;;1.24;100.00;100488.72;5000440;28;20197;-81
2021/12/29 09:37:41;;;;;;;161.95;43.58;;;;;;;1.30;100.00;100492.22;5013779;28;20172;-80
2021/12/29 09:40:09;;;;;;;375.52;49.08;;;;;;;1.21;100.00;100491.38;4999855;28;20188;-80
2021/12/29 09:42:34;;;;;;;177.80;40.72;;;;;;;1.26;100.00;100485.22;5012762;28;20201;-82
2021/12/29 09:45:01;;;;;;;339.35;49.63;;;;;;;1.22;100.00;100481.69;4994121;28;20271;-82
2021/12/29 09:47:28;;;;;;;282.80;46.90;;;;;;;1.29;100.00;100477.25;4994767;28;20189;-82
2021/12/29 09:49:55;;;;;;;351.67;49.35;;;;;;;1.26;100.00;100474.66;4994747;28;20220;-82
2021/12/29 09:52:20;;;;;;;193.65;45.38;;;;;;;1.33;100.00;100474.59;5010747;28;20177;-82
2021/12/29 09:54:46;;;;;;;183.43;45.67;;;;;;;1.36;100.00;100492.19;5010430;28;20170;-82
2021/12/29 09:57:14;;;;;;;176.07;44.20;;;;;;;1.39;100.00;100485.13;4993772;28;20177;-82
2021/12/29 09:59:40;;;;;;;187.75;44.47;;;;;;;1.45;100.00;100486.84;4993570;28;20184;-82
2021/12/29 10:02:06;;;;;;;169.80;43.15;;;;;;;1.46;100.00;100487.72;5011209;28;20205;-79
2021/12/29 10:04:34;;;;;;;183.60;46.30;;;;;;;1.48;100.00;100485.94;4977519;28;20185;-79
2021/12/29 10:07:17;;;;;;;184.52;45.90;;;;;;;1.43;100.00;100483.34;4978000;28;20185;-80
2021/12/29 10:09:43;;;;;;;235.95;49.45;;;;;;;1.38;100.00;100493.06;4993083;28;20625;-80
2021/12/29 10:12:17;;;;;;;232.95;46.05;;;;;;;1.34;100.00;100499.25;4992521;28;20293;-80
2021/12/29 10:14:57;;;;;;;244.70;49.03;;;;;;;1.31;100.00;100515.97;4974450;28;20177;-79
2021/12/29 10:17:27;;;;;;;206.60;47.63;;;;;;;1.29;100.00;100504.56;4988381;28;20245;-82
2021/12/29 10:20:06;;;;;;;169.05;43.45;;;;;;;1.37;100.00;100496.56;4971834;28;20174;-81
2021/12/29 10:22:33;;;;;;;171.10;43.80;;;;;;;1.38;100.00;100507.13;4988131;28;20206;-82
2021/12/29 10:25:11;;;;;;;184.32;46.42;;;;;;;1.43;100.00;100502.69;4973226;28;20162;-82
2021/12/29 10:27:40;;;;;;;169.00;44.97;;;;;;;1.51;100.00;100513.22;4971243;28;20676;-81
2021/12/29 10:30:25;;;;;;;157.18;44.22;;;;;;;1.57;100.00;100501.72;4972227;28;20182;-82
2021/12/29 10:32:50;;;;;;;174.43;45.10;;;;;;;1.57;100.00;100509.66;4972889;28;20168;-82
2021/12/29 10:35:25;;;;;;;187.70;46.55;;;;;;;1.55;100.00;100508.78;4971968;28;20221;-82
2021/12/29 10:37:52;;;;;;;181.38;45.67;;;;;;;1.50;100.00;100507.94;4972599;28;20189;-82
2021/12/29 10:40:30;;;;;;;148.43;42.88;;;;;;;1.59;100.00;100514.03;4977482;28;20202;-81
2021/12/29 10:43:01;;;;;;;149.50;41.78;;;;;;;1.67;100.00;100508.72;4978997;28;20668;-81
2021/12/29 10:45:49;;;;;;;122.47;39.22;;;;;;;1.76;100.00;100516.56;4979079;28;20177;-80
2021/12/29 10:48:23;;;;;;;140.50;41.80;;;;;;;1.78;100.00;100524.47;4979426;28;20179;-80
2021/12/29 10:51:15;;;;;;;151.30;46.50;;;;;;;1.77;100.00;100510.41;4979006;28;20205;-80
2021/12/29 10:53:41;;;;;;;143.45;43.67;;;;;;;1.70;100.00;100516.59;4977577;28;20640;-80
2021/12/29 10:56:22;;;;;;;131.07;41.47;;;;;;;1.75;100.00;100516.56;4978903;28;20170;-80
2021/12/29 10:58:49;;;;;;;143.18;44.95;;;;;;;1.68;100.00;100520.13;4977155;28;20190;-80
2021/12/29 11:01:15;;;;;;;137.05;43.55;;;;;;;1.74;100.00;100522.75;4994054;28;20264;-80
2021/12/29 11:03:53;;;;;;;148.02;43.88;;;;;;;1.75;100.00;100530.66;4993412;28;20174;-80
2021/12/29 11:06:22;;;;;;;125.82;41.78;;;;;;;1.82;100.00;100532.38;4993024;28;20261;-80
2021/12/29 11:08:54;;;;;;;143.13;43.13;;;;;;;1.83;100.00;100541.16;4993887;28;20639;-80
2021/12/29 11:11:26;;;;;;;153.57;46.80;;;;;;;1.81;100.00;100535.00;4978478;28;20688;-80
2021/12/29 11:13:56;;;;;;;167.07;49.63;;;;;;;1.82;100.00;100535.00;4978983;28;20173;-80
2021/12/29 11:16:21;;;;;;;148.50;47.95;;;;;;;1.89;100.00;100541.13;4977750;28;20182;-80